Terminal Aerodrome Forecast
Issued by NWS Sterling, VA

Home | Current Version | Previous Version | Text Only | Print | Product List | Glossary On
Versions: 1 2 3 4 5 6 7 8 9 10 11 12 13 14 15 16 17 18 19 20 21 22 23
000
FTUS41 KLWX 281703 AAB
TAFBWI
TAF AMD
KBWI 281703Z 2817/2918 06007KT 6SM -TSRA VCSH BKN011CB BKN021
      TEMPO 2817/2818 12020KT 3SM -TSRA BKN010CB
     FM281800 12005KT 5SM SHRA VCTS OVC030CB
     FM282100 09006KT 3SM +SHRA OVC010
     FM290600 04008KT 3SM SHRA OVC035
     FM290900 03009KT 5SM -SHRA OVC035
     FM291600 01013G20KT P6SM VCSH OVC030=

USA.gov is the U.S. government's official web portal to all federal, state and local government web resources and services.